Terminal Aerodrome Forecast
Issued by NWS

Home | Current Version | Previous Version | Text Only | Print | Product List | Glossary On
Versions: 1 2 3 4 5 6 7 8 9 10 11 12 13 14 15 16 17 18 19 20 21 22 23 24 25 26 27 28 29 30 31 32 33 34 35 36 37 38 39 40 41 42 43 44 45 46 47 48 49 50
000
FTUS43 KLOT 222342
TAFGYY
TAF
KGYY 222342Z 2300/2324 17011KT P6SM VCSH SCT030 BKN050
      TEMPO 2301/2303 3SM -SHRA BKN030
     FM230300 25010KT 6SM BR VCSH SCT015 OVC035
     FM231100 29013G20KT 4SM -SN SCT008 OVC015
      TEMPO 2311/2315 2SM -SN SCT004 OVC008
     FM231500 32015G22KT 6SM -SHSN OVC015
     FM232200 31012KT P6SM BKN030=

USA.gov is the U.S. government's official web portal to all federal, state and local government web resources and services.